sensor_id;sensor_type;location;lat;lon;timestamp;P1;durP1;ratioP1;P2;durP2;ratioP2
61038;SDS011;46919;45.816;3.104;2023-04-09T00:02:11;4.57;;;3.28;;
61038;SDS011;46919;45.816;3.104;2023-04-09T00:04:37;4.68;;;3.38;;
61038;SDS011;46919;45.816;3.104;2023-04-09T00:07:02;4.00;;;2.88;;
61038;SDS011;46919;45.816;3.104;2023-04-09T00:09:28;5.22;;;3.78;;
61038;SDS011;46919;45.816;3.104;2023-04-09T00:11:53;3.47;;;2.72;;
61038;SDS011;46919;45.816;3.104;2023-04-09T00:14:20;4.65;;;3.42;;
61038;SDS011;46919;45.816;3.104;2023-04-09T00:16:45;5.57;;;3.30;;
61038;SDS011;46919;45.816;3.104;2023-04-09T00:19:11;4.72;;;3.50;;
61038;SDS011;46919;45.816;3.104;2023-04-09T00:21:36;5.60;;;3.80;;
61038;SDS011;46919;45.816;3.104;2023-04-09T00:24:02;5.68;;;3.83;;
61038;SDS011;46919;45.816;3.104;2023-04-09T00:26:27;4.35;;;3.60;;
61038;SDS011;46919;45.816;3.104;2023-04-09T00:28:53;4.70;;;3.55;;
61038;SDS011;46919;45.816;3.104;2023-04-09T00:31:19;7.38;;;3.60;;
61038;SDS011;46919;45.816;3.104;2023-04-09T00:33:44;6.13;;;3.92;;
61038;SDS011;46919;45.816;3.104;2023-04-09T00:36:10;5.45;;;4.40;;
61038;SDS011;46919;45.816;3.104;2023-04-09T00:38:35;5.63;;;4.32;;
61038;SDS011;46919;45.816;3.104;2023-04-09T00:41:00;7.25;;;4.78;;
61038;SDS011;46919;45.816;3.104;2023-04-09T00:43:26;7.38;;;4.80;;
61038;SDS011;46919;45.816;3.104;2023-04-09T00:45:51;7.07;;;4.53;;
61038;SDS011;46919;45.816;3.104;2023-04-09T00:48:17;6.03;;;4.40;;
61038;SDS011;46919;45.816;3.104;2023-04-09T00:50:42;6.03;;;4.05;;
61038;SDS011;46919;45.816;3.104;2023-04-09T00:53:08;4.38;;;3.63;;
61038;SDS011;46919;45.816;3.104;2023-04-09T00:55:36;4.22;;;2.97;;
61038;SDS011;46919;45.816;3.104;2023-04-09T00:58:04;5.10;;;3.40;;
61038;SDS011;46919;45.816;3.104;2023-04-09T01:00:30;4.93;;;3.20;;
61038;SDS011;46919;45.816;3.104;2023-04-09T01:02:55;6.10;;;2.92;;
61038;SDS011;46919;45.816;3.104;2023-04-09T01:05:23;3.28;;;2.97;;
61038;SDS011;46919;45.816;3.104;2023-04-09T01:11:01;5.93;;;4.80;;
61038;SDS011;46919;45.816;3.104;2023-04-09T01:16:23;5.00;;;3.03;;
61038;SDS011;46919;45.816;3.104;2023-04-09T01:18:51;5.55;;;2.70;;
61038;SDS011;46919;45.816;3.104;2023-04-09T01:21:24;3.47;;;2.60;;
61038;SDS011;46919;45.816;3.104;2023-04-09T01:24:09;4.00;;;2.65;;
61038;SDS011;46919;45.816;3.104;2023-04-09T01:27:00;3.67;;;2.33;;
61038;SDS011;46919;45.816;3.104;2023-04-09T01:29:30;2.88;;;1.90;;
61038;SDS011;46919;45.816;3.104;2023-04-09T01:31:58;3.45;;;2.15;;
61038;SDS011;46919;45.816;3.104;2023-04-09T01:34:26;3.65;;;2.80;;
61038;SDS011;46919;45.816;3.104;2023-04-09T01:36:54;3.80;;;2.67;;
61038;SDS011;46919;45.816;3.104;2023-04-09T01:39:22;4.38;;;3.30;;
61038;SDS011;46919;45.816;3.104;2023-04-09T01:41:48;3.72;;;2.47;;
61038;SDS011;46919;45.816;3.104;2023-04-09T01:44:15;3.85;;;2.50;;
61038;SDS011;46919;45.816;3.104;2023-04-09T01:46:41;2.85;;;2.10;;
61038;SDS011;46919;45.816;3.104;2023-04-09T01:49:08;5.05;;;2.75;;
61038;SDS011;46919;45.816;3.104;2023-04-09T01:51:34;3.45;;;2.53;;
61038;SDS011;46919;45.816;3.104;2023-04-09T01:54:01;2.33;;;2.03;;
61038;SDS011;46919;45.816;3.104;2023-04-09T01:56:38;4.72;;;2.47;;
61038;SDS011;46919;45.816;3.104;2023-04-09T02:04:19;4.72;;;2.50;;
61038;SDS011;46919;45.816;3.104;2023-04-09T02:07:02;8.43;;;2.67;;
61038;SDS011;46919;45.816;3.104;2023-04-09T02:09:30;4.55;;;2.40;;
61038;SDS011;46919;45.816;3.104;2023-04-09T02:12:02;4.25;;;2.40;;
61038;SDS011;46919;45.816;3.104;2023-04-09T02:14:30;4.88;;;2.85;;
61038;SDS011;46919;45.816;3.104;2023-04-09T02:16:57;4.68;;;2.70;;
61038;SDS011;46919;45.816;3.104;2023-04-09T02:19:23;3.80;;;2.72;;
61038;SDS011;46919;45.816;3.104;2023-04-09T02:21:48;3.47;;;2.38;;
61038;SDS011;46919;45.816;3.104;2023-04-09T02:24:14;3.35;;;2.50;;
61038;SDS011;46919;45.816;3.104;2023-04-09T02:26:39;3.15;;;2.38;;
61038;SDS011;46919;45.816;3.104;2023-04-09T02:29:05;3.60;;;2.67;;
61038;SDS011;46919;45.816;3.104;2023-04-09T02:31:30;2.90;;;2.50;;
61038;SDS011;46919;45.816;3.104;2023-04-09T02:33:56;3.83;;;2.83;;
61038;SDS011;46919;45.816;3.104;2023-04-09T02:36:21;3.05;;;2.70;;
61038;SDS011;46919;45.816;3.104;2023-04-09T02:38:46;3.97;;;2.80;;
61038;SDS011;46919;45.816;3.104;2023-04-09T02:41:12;3.15;;;2.63;;
61038;SDS011;46919;45.816;3.104;2023-04-09T02:43:37;3.80;;;2.65;;
61038;SDS011;46919;45.816;3.104;2023-04-09T02:46:03;2.67;;;2.28;;
61038;SDS011;46919;45.816;3.104;2023-04-09T02:48:28;3.42;;;2.40;;
61038;SDS011;46919;45.816;3.104;2023-04-09T02:50:54;3.40;;;2.55;;
61038;SDS011;46919;45.816;3.104;2023-04-09T02:53:19;3.67;;;3.10;;
61038;SDS011;46919;45.816;3.104;2023-04-09T02:55:48;4.13;;;2.70;;
61038;SDS011;46919;45.816;3.104;2023-04-09T02:58:13;3.30;;;2.83;;
61038;SDS011;46919;45.816;3.104;2023-04-09T03:00:38;4.93;;;3.05;;
61038;SDS011;46919;45.816;3.104;2023-04-09T03:03:04;3.67;;;2.47;;
61038;SDS011;46919;45.816;3.104;2023-04-09T03:05:29;4.63;;;2.90;;
61038;SDS011;46919;45.816;3.104;2023-04-09T03:07:55;4.68;;;3.20;;
61038;SDS011;46919;45.816;3.104;2023-04-09T03:10:20;6.57;;;3.10;;
61038;SDS011;46919;45.816;3.104;2023-04-09T03:12:46;4.90;;;2.97;;
61038;SDS011;46919;45.816;3.104;2023-04-09T03:15:12;3.47;;;3.05;;
61038;SDS011;46919;45.816;3.104;2023-04-09T03:17:37;4.35;;;3.40;;
61038;SDS011;46919;45.816;3.104;2023-04-09T03:20:03;6.40;;;4.07;;
61038;SDS011;46919;45.816;3.104;2023-04-09T03:22:31;4.32;;;3.40;;
61038;SDS011;46919;45.816;3.104;2023-04-09T03:25:00;4.97;;;3.42;;
61038;SDS011;46919;45.816;3.104;2023-04-09T03:27:25;5.57;;;3.75;;
61038;SDS011;46919;45.816;3.104;2023-04-09T03:29:54;4.72;;;3.20;;
61038;SDS011;46919;45.816;3.104;2023-04-09T03:32:20;3.72;;;2.72;;
61038;SDS011;46919;45.816;3.104;2023-04-09T03:34:45;4.78;;;3.53;;
61038;SDS011;46919;45.816;3.104;2023-04-09T03:37:10;4.47;;;3.05;;
61038;SDS011;46919;45.816;3.104;2023-04-09T03:39:36;4.45;;;3.35;;
61038;SDS011;46919;45.816;3.104;2023-04-09T03:42:01;3.60;;;2.95;;
61038;SDS011;46919;45.816;3.104;2023-04-09T03:44:27;4.70;;;2.88;;
61038;SDS011;46919;45.816;3.104;2023-04-09T03:46:52;4.35;;;2.83;;
61038;SDS011;46919;45.816;3.104;2023-04-09T03:49:17;3.35;;;2.58;;
61038;SDS011;46919;45.816;3.104;2023-04-09T03:51:43;3.50;;;2.53;;
61038;SDS011;46919;45.816;3.104;2023-04-09T03:54:08;2.90;;;2.60;;
61038;SDS011;46919;45.816;3.104;2023-04-09T03:56:34;4.50;;;3.30;;
61038;SDS011;46919;45.816;3.104;2023-04-09T03:58:59;4.30;;;2.80;;
61038;SDS011;46919;45.816;3.104;2023-04-09T04:01:25;5.90;;;3.83;;
61038;SDS011;46919;45.816;3.104;2023-04-09T04:03:50;6.32;;;3.95;;
61038;SDS011;46919;45.816;3.104;2023-04-09T04:06:15;4.78;;;3.55;;
61038;SDS011;46919;45.816;3.104;2023-04-09T04:08:41;4.70;;;3.47;;
61038;SDS011;46919;45.816;3.104;2023-04-09T04:11:06;5.63;;;3.40;;
61038;SDS011;46919;45.816;3.104;2023-04-09T04:13:32;4.25;;;3.38;;
61038;SDS011;46919;45.816;3.104;2023-04-09T04:15:57;5.03;;;3.35;;
61038;SDS011;46919;45.816;3.104;2023-04-09T04:18:22;4.57;;;3.20;;
61038;SDS011;46919;45.816;3.104;2023-04-09T04:20:48;3.83;;;2.65;;
61038;SDS011;46919;45.816;3.104;2023-04-09T04:23:13;4.45;;;3.20;;
61038;SDS011;46919;45.816;3.104;2023-04-09T04:25:42;5.43;;;3.55;;
61038;SDS011;46919;45.816;3.104;2023-04-09T04:28:07;3.92;;;2.70;;
61038;SDS011;46919;45.816;3.104;2023-04-09T04:30:33;5.45;;;3.30;;
61038;SDS011;46919;45.816;3.104;2023-04-09T04:32:58;5.03;;;3.50;;
61038;SDS011;46919;45.816;3.104;2023-04-09T04:35:23;4.38;;;3.40;;
61038;SDS011;46919;45.816;3.104;2023-04-09T04:37:49;4.75;;;3.60;;
61038;SDS011;46919;45.816;3.104;2023-04-09T04:40:15;5.70;;;3.72;;
61038;SDS011;46919;45.816;3.104;2023-04-09T04:42:40;5.22;;;3.75;;
61038;SDS011;46919;45.816;3.104;2023-04-09T04:45:06;4.93;;;3.70;;
61038;SDS011;46919;45.816;3.104;2023-04-09T04:47:32;6.68;;;3.50;;
61038;SDS011;46919;45.816;3.104;2023-04-09T04:49:57;6.07;;;3.47;;
61038;SDS011;46919;45.816;3.104;2023-04-09T04:52:23;4.30;;;2.90;;
61038;SDS011;46919;45.816;3.104;2023-04-09T04:54:49;4.50;;;3.42;;
61038;SDS011;46919;45.816;3.104;2023-04-09T04:57:14;6.55;;;3.67;;
61038;SDS011;46919;45.816;3.104;2023-04-09T04:59:40;3.60;;;3.08;;
61038;SDS011;46919;45.816;3.104;2023-04-09T05:02:06;4.90;;;2.88;;
61038;SDS011;46919;45.816;3.104;2023-04-09T05:04:31;3.55;;;2.65;;
61038;SDS011;46919;45.816;3.104;2023-04-09T05:06:57;5.07;;;3.13;;
61038;SDS011;46919;45.816;3.104;2023-04-09T05:09:22;4.30;;;3.22;;
61038;SDS011;46919;45.816;3.104;2023-04-09T05:11:48;4.10;;;3.17;;
61038;SDS011;46919;45.816;3.104;2023-04-09T05:14:13;5.28;;;3.13;;
61038;SDS011;46919;45.816;3.104;2023-04-09T05:16:39;4.70;;;3.17;;
61038;SDS011;46919;45.816;3.104;2023-04-09T05:19:04;4.95;;;3.10;;
61038;SDS011;46919;45.816;3.104;2023-04-09T05:21:30;4.00;;;3.38;;
61038;SDS011;46919;45.816;3.104;2023-04-09T05:23:56;4.45;;;3.22;;
61038;SDS011;46919;45.816;3.104;2023-04-09T05:26:21;4.85;;;3.45;;
61038;SDS011;46919;45.816;3.104;2023-04-09T05:28:47;5.18;;;3.63;;
61038;SDS011;46919;45.816;3.104;2023-04-09T05:31:13;5.25;;;3.83;;
61038;SDS011;46919;45.816;3.104;2023-04-09T05:33:39;5.88;;;3.50;;
61038;SDS011;46919;45.816;3.104;2023-04-09T05:36:05;5.93;;;3.83;;
61038;SDS011;46919;45.816;3.104;2023-04-09T05:38:31;6.63;;;3.97;;
61038;SDS011;46919;45.816;3.104;2023-04-09T05:40:56;6.72;;;4.15;;
61038;SDS011;46919;45.816;3.104;2023-04-09T05:43:22;5.38;;;3.83;;
61038;SDS011;46919;45.816;3.104;2023-04-09T05:45:47;5.82;;;3.92;;
61038;SDS011;46919;45.816;3.104;2023-04-09T05:48:13;5.55;;;3.97;;
61038;SDS011;46919;45.816;3.104;2023-04-09T05:50:38;6.28;;;4.28;;
61038;SDS011;46919;45.816;3.104;2023-04-09T05:53:04;4.78;;;3.60;;
61038;SDS011;46919;45.816;3.104;2023-04-09T05:55:30;6.22;;;4.30;;
61038;SDS011;46919;45.816;3.104;2023-04-09T05:57:56;6.20;;;4.80;;
61038;SDS011;46919;45.816;3.104;2023-04-09T06:00:22;8.23;;;6.32;;
61038;SDS011;46919;45.816;3.104;2023-04-09T06:02:47;9.65;;;6.50;;
61038;SDS011;46919;45.816;3.104;2023-04-09T06:05:13;15.05;;;8.07;;
61038;SDS011;46919;45.816;3.104;2023-04-09T06:07:38;15.00;;;9.25;;
61038;SDS011;46919;45.816;3.104;2023-04-09T06:10:03;18.13;;;10.45;;
61038;SDS011;46919;45.816;3.104;2023-04-09T06:12:29;20.67;;;11.07;;
61038;SDS011;46919;45.816;3.104;2023-04-09T06:14:55;15.90;;;10.07;;
61038;SDS011;46919;45.816;3.104;2023-04-09T06:17:20;14.60;;;9.30;;
61038;SDS011;46919;45.816;3.104;2023-04-09T06:19:46;14.13;;;9.00;;
61038;SDS011;46919;45.816;3.104;2023-04-09T06:22:11;13.93;;;9.23;;
61038;SDS011;46919;45.816;3.104;2023-04-09T06:24:36;13.82;;;8.43;;
61038;SDS011;46919;45.816;3.104;2023-04-09T06:27:02;11.65;;;8.98;;
61038;SDS011;46919;45.816;3.104;2023-04-09T06:29:27;12.27;;;8.23;;
61038;SDS011;46919;45.816;3.104;2023-04-09T06:31:53;13.13;;;8.32;;
61038;SDS011;46919;45.816;3.104;2023-04-09T06:34:19;14.50;;;7.75;;
61038;SDS011;46919;45.816;3.104;2023-04-09T06:36:44;13.27;;;7.70;;
61038;SDS011;46919;45.816;3.104;2023-04-09T06:39:09;10.43;;;7.13;;
61038;SDS011;46919;45.816;3.104;2023-04-09T06:41:35;10.68;;;6.93;;
61038;SDS011;46919;45.816;3.104;2023-04-09T06:44:00;11.05;;;7.63;;
61038;SDS011;46919;45.816;3.104;2023-04-09T06:46:26;11.82;;;6.53;;
61038;SDS011;46919;45.816;3.104;2023-04-09T06:48:52;8.75;;;5.72;;
61038;SDS011;46919;45.816;3.104;2023-04-09T06:51:17;7.03;;;5.70;;
61038;SDS011;46919;45.816;3.104;2023-04-09T06:53:43;7.68;;;5.85;;
61038;SDS011;46919;45.816;3.104;2023-04-09T06:56:08;7.95;;;5.35;;
61038;SDS011;46919;45.816;3.104;2023-04-09T06:58:34;11.32;;;5.95;;
61038;SDS011;46919;45.816;3.104;2023-04-09T07:01:00;7.40;;;5.68;;
61038;SDS011;46919;45.816;3.104;2023-04-09T07:03:25;7.03;;;4.97;;
61038;SDS011;46919;45.816;3.104;2023-04-09T07:05:52;8.23;;;5.05;;
61038;SDS011;46919;45.816;3.104;2023-04-09T07:08:18;6.00;;;4.65;;
61038;SDS011;46919;45.816;3.104;2023-04-09T07:10:44;7.38;;;4.43;;
61038;SDS011;46919;45.816;3.104;2023-04-09T07:13:11;7.13;;;5.00;;
61038;SDS011;46919;45.816;3.104;2023-04-09T07:15:36;5.18;;;3.88;;
61038;SDS011;46919;45.816;3.104;2023-04-09T07:18:02;7.03;;;4.05;;
61038;SDS011;46919;45.816;3.104;2023-04-09T07:20:27;7.20;;;3.42;;
61038;SDS011;46919;45.816;3.104;2023-04-09T07:22:53;5.72;;;3.65;;
61038;SDS011;46919;45.816;3.104;2023-04-09T07:25:18;3.72;;;3.30;;
61038;SDS011;46919;45.816;3.104;2023-04-09T07:27:45;5.78;;;3.78;;
61038;SDS011;46919;45.816;3.104;2023-04-09T07:30:10;6.47;;;4.13;;
61038;SDS011;46919;45.816;3.104;2023-04-09T07:32:36;6.32;;;4.22;;
61038;SDS011;46919;45.816;3.104;2023-04-09T07:35:02;5.60;;;3.70;;
61038;SDS011;46919;45.816;3.104;2023-04-09T07:37:32;4.80;;;4.15;;
61038;SDS011;46919;45.816;3.104;2023-04-09T07:39:57;5.15;;;4.22;;
61038;SDS011;46919;45.816;3.104;2023-04-09T07:42:23;4.80;;;3.65;;
61038;SDS011;46919;45.816;3.104;2023-04-09T07:44:48;6.43;;;3.85;;
61038;SDS011;46919;45.816;3.104;2023-04-09T07:47:14;4.25;;;3.70;;
61038;SDS011;46919;45.816;3.104;2023-04-09T07:49:40;5.63;;;3.45;;
61038;SDS011;46919;45.816;3.104;2023-04-09T07:52:05;5.60;;;3.58;;
61038;SDS011;46919;45.816;3.104;2023-04-09T07:54:33;4.38;;;3.42;;
61038;SDS011;46919;45.816;3.104;2023-04-09T07:56:59;4.38;;;3.70;;
61038;SDS011;46919;45.816;3.104;2023-04-09T07:59:28;4.28;;;3.50;;
61038;SDS011;46919;45.816;3.104;2023-04-09T08:01:54;4.40;;;3.47;;
61038;SDS011;46919;45.816;3.104;2023-04-09T08:04:20;5.55;;;3.50;;
61038;SDS011;46919;45.816;3.104;2023-04-09T08:06:45;4.90;;;3.67;;
61038;SDS011;46919;45.816;3.104;2023-04-09T08:09:15;4.18;;;3.30;;
61038;SDS011;46919;45.816;3.104;2023-04-09T08:11:42;5.32;;;3.45;;
61038;SDS011;46919;45.816;3.104;2023-04-09T08:14:10;4.53;;;3.00;;
61038;SDS011;46919;45.816;3.104;2023-04-09T08:16:40;4.10;;;3.03;;
61038;SDS011;46919;45.816;3.104;2023-04-09T08:19:08;4.47;;;3.33;;
61038;SDS011;46919;45.816;3.104;2023-04-09T08:21:37;4.25;;;3.08;;
61038;SDS011;46919;45.816;3.104;2023-04-09T08:24:04;3.20;;;2.85;;
61038;SDS011;46919;45.816;3.104;2023-04-09T08:26:31;3.50;;;2.92;;
61038;SDS011;46919;45.816;3.104;2023-04-09T08:28:56;3.80;;;3.00;;
61038;SDS011;46919;45.816;3.104;2023-04-09T08:31:22;3.88;;;3.40;;
61038;SDS011;46919;45.816;3.104;2023-04-09T08:33:47;4.38;;;3.15;;
61038;SDS011;46919;45.816;3.104;2023-04-09T08:36:13;4.50;;;3.40;;
61038;SDS011;46919;45.816;3.104;2023-04-09T08:38:38;3.90;;;3.50;;
61038;SDS011;46919;45.816;3.104;2023-04-09T08:41:04;5.15;;;3.35;;
61038;SDS011;46919;45.816;3.104;2023-04-09T08:43:31;4.63;;;3.45;;
61038;SDS011;46919;45.816;3.104;2023-04-09T08:45:58;3.85;;;3.45;;
61038;SDS011;46919;45.816;3.104;2023-04-09T08:48:26;4.85;;;3.60;;
61038;SDS011;46919;45.816;3.104;2023-04-09T08:50:52;4.88;;;3.78;;
61038;SDS011;46919;45.816;3.104;2023-04-09T08:53:17;4.07;;;3.40;;
61038;SDS011;46919;45.816;3.104;2023-04-09T08:55:46;5.53;;;3.65;;
61038;SDS011;46919;45.816;3.104;2023-04-09T08:58:12;6.63;;;3.40;;
61038;SDS011;46919;45.816;3.104;2023-04-09T09:00:37;5.07;;;3.70;;
61038;SDS011;46919;45.816;3.104;2023-04-09T09:03:07;6.43;;;3.92;;
61038;SDS011;46919;45.816;3.104;2023-04-09T09:05:38;4.95;;;3.72;;
61038;SDS011;46919;45.816;3.104;2023-04-09T09:08:05;5.55;;;3.70;;
61038;SDS011;46919;45.816;3.104;2023-04-09T09:13:30;4.30;;;3.70;;
61038;SDS011;46919;45.816;3.104;2023-04-09T09:16:11;4.45;;;3.80;;
61038;SDS011;46919;45.816;3.104;2023-04-09T09:18:39;5.53;;;4.13;;
61038;SDS011;46919;45.816;3.104;2023-04-09T09:21:11;4.93;;;3.83;;
61038;SDS011;46919;45.816;3.104;2023-04-09T09:23:38;4.75;;;3.72;;
61038;SDS011;46919;45.816;3.104;2023-04-09T09:26:13;5.22;;;3.78;;
61038;SDS011;46919;45.816;3.104;2023-04-09T09:28:40;4.13;;;3.72;;
61038;SDS011;46919;45.816;3.104;2023-04-09T09:31:07;6.93;;;4.07;;
61038;SDS011;46919;45.816;3.104;2023-04-09T09:33:33;8.65;;;3.78;;
61038;SDS011;46919;45.816;3.104;2023-04-09T09:35:59;6.20;;;4.45;;
61038;SDS011;46919;45.816;3.104;2023-04-09T09:38:27;4.82;;;4.03;;
61038;SDS011;46919;45.816;3.104;2023-04-09T09:40:53;6.32;;;4.72;;
61038;SDS011;46919;45.816;3.104;2023-04-09T09:43:18;5.55;;;4.13;;
61038;SDS011;46919;45.816;3.104;2023-04-09T09:45:45;5.43;;;4.28;;
61038;SDS011;46919;45.816;3.104;2023-04-09T09:48:11;4.55;;;3.88;;
61038;SDS011;46919;45.816;3.104;2023-04-09T09:50:37;6.07;;;3.90;;
61038;SDS011;46919;45.816;3.104;2023-04-09T09:53:06;4.10;;;3.70;;
61038;SDS011;46919;45.816;3.104;2023-04-09T09:55:33;5.82;;;4.00;;
61038;SDS011;46919;45.816;3.104;2023-04-09T09:58:06;4.93;;;3.45;;
61038;SDS011;46919;45.816;3.104;2023-04-09T10:00:47;3.60;;;3.00;;
61038;SDS011;46919;45.816;3.104;2023-04-09T10:03:20;4.72;;;3.25;;
61038;SDS011;46919;45.816;3.104;2023-04-09T10:05:49;3.40;;;3.10;;
61038;SDS011;46919;45.816;3.104;2023-04-09T10:08:15;3.67;;;3.00;;
61038;SDS011;46919;45.816;3.104;2023-04-09T10:10:41;3.92;;;3.53;;
61038;SDS011;46919;45.816;3.104;2023-04-09T10:13:12;4.43;;;3.70;;
61038;SDS011;46919;45.816;3.104;2023-04-09T10:15:59;6.80;;;3.80;;
61038;SDS011;46919;45.816;3.104;2023-04-09T10:18:26;8.60;;;4.20;;
61038;SDS011;46919;45.816;3.104;2023-04-09T10:23:41;6.13;;;3.67;;
61038;SDS011;46919;45.816;3.104;2023-04-09T10:26:08;5.30;;;3.75;;
61038;SDS011;46919;45.816;3.104;2023-04-09T10:28:35;4.63;;;3.80;;
61038;SDS011;46919;45.816;3.104;2023-04-09T10:31:03;5.93;;;4.00;;
61038;SDS011;46919;45.816;3.104;2023-04-09T10:33:29;4.60;;;3.60;;
61038;SDS011;46919;45.816;3.104;2023-04-09T10:36:05;4.60;;;3.22;;
61038;SDS011;46919;45.816;3.104;2023-04-09T10:43:51;5.13;;;3.60;;
61038;SDS011;46919;45.816;3.104;2023-04-09T10:49:08;4.80;;;3.55;;
61038;SDS011;46919;45.816;3.104;2023-04-09T10:51:35;3.90;;;3.05;;
61038;SDS011;46919;45.816;3.104;2023-04-09T10:54:05;4.60;;;3.10;;
61038;SDS011;46919;45.816;3.104;2023-04-09T10:56:31;3.28;;;2.80;;
61038;SDS011;46919;45.816;3.104;2023-04-09T10:58:57;4.47;;;2.83;;
61038;SDS011;46919;45.816;3.104;2023-04-09T11:01:23;2.90;;;2.60;;
61038;SDS011;46919;45.816;3.104;2023-04-09T11:04:15;2.50;;;2.30;;
61038;SDS011;46919;45.816;3.104;2023-04-09T11:06:42;2.78;;;2.30;;
61038;SDS011;46919;45.816;3.104;2023-04-09T11:09:09;3.15;;;2.35;;
61038;SDS011;46919;45.816;3.104;2023-04-09T11:11:35;2.20;;;1.75;;
61038;SDS011;46919;45.816;3.104;2023-04-09T11:14:00;2.15;;;1.63;;
61038;SDS011;46919;45.816;3.104;2023-04-09T11:16:29;2.55;;;2.00;;
61038;SDS011;46919;45.816;3.104;2023-04-09T11:18:55;1.80;;;1.70;;
61038;SDS011;46919;45.816;3.104;2023-04-09T11:21:21;2.13;;;1.63;;
61038;SDS011;46919;45.816;3.104;2023-04-09T11:23:51;2.40;;;1.80;;
61038;SDS011;46919;45.816;3.104;2023-04-09T11:26:21;1.85;;;1.65;;
61038;SDS011;46919;45.816;3.104;2023-04-09T11:28:48;2.65;;;1.80;;
61038;SDS011;46919;45.816;3.104;2023-04-09T11:31:13;3.58;;;2.92;;
61038;SDS011;46919;45.816;3.104;2023-04-09T11:33:38;2.28;;;2.05;;
61038;SDS011;46919;45.816;3.104;2023-04-09T11:36:04;3.22;;;2.33;;
61038;SDS011;46919;45.816;3.104;2023-04-09T11:38:30;4.50;;;2.90;;
61038;SDS011;46919;45.816;3.104;2023-04-09T11:40:56;2.20;;;2.00;;
61038;SDS011;46919;45.816;3.104;2023-04-09T11:43:21;2.55;;;2.10;;
61038;SDS011;46919;45.816;3.104;2023-04-09T11:45:48;4.28;;;2.45;;
61038;SDS011;46919;45.816;3.104;2023-04-09T11:48:14;4.25;;;3.10;;
61038;SDS011;46919;45.816;3.104;2023-04-09T11:50:42;4.82;;;2.75;;
61038;SDS011;46919;45.816;3.104;2023-04-09T11:53:20;2.45;;;2.25;;
61038;SDS011;46919;45.816;3.104;2023-04-09T11:55:51;3.67;;;2.33;;
61038;SDS011;46919;45.816;3.104;2023-04-09T11:58:17;2.33;;;2.13;;
61038;SDS011;46919;45.816;3.104;2023-04-09T12:00:46;2.05;;;1.85;;
61038;SDS011;46919;45.816;3.104;2023-04-09T12:03:12;2.72;;;2.05;;
61038;SDS011;46919;45.816;3.104;2023-04-09T12:05:43;2.40;;;2.08;;
61038;SDS011;46919;45.816;3.104;2023-04-09T12:10:38;3.75;;;2.25;;
61038;SDS011;46919;45.816;3.104;2023-04-09T12:13:07;2.15;;;1.70;;
61038;SDS011;46919;45.816;3.104;2023-04-09T12:15:38;2.20;;;2.00;;
61038;SDS011;46919;45.816;3.104;2023-04-09T12:18:08;2.88;;;1.80;;
61038;SDS011;46919;45.816;3.104;2023-04-09T12:20:35;3.38;;;1.85;;
61038;SDS011;46919;45.816;3.104;2023-04-09T12:23:07;1.80;;;1.70;;
61038;SDS011;46919;45.816;3.104;2023-04-09T12:25:40;2.10;;;2.00;;
61038;SDS011;46919;45.816;3.104;2023-04-09T12:28:07;2.92;;;2.22;;
61038;SDS011;46919;45.816;3.104;2023-04-09T12:30:35;2.60;;;2.13;;
61038;SDS011;46919;45.816;3.104;2023-04-09T12:33:01;2.17;;;1.80;;
61038;SDS011;46919;45.816;3.104;2023-04-09T12:35:27;2.42;;;1.90;;
61038;SDS011;46919;45.816;3.104;2023-04-09T12:37:53;2.65;;;2.00;;
61038;SDS011;46919;45.816;3.104;2023-04-09T12:40:19;2.85;;;2.00;;
61038;SDS011;46919;45.816;3.104;2023-04-09T12:42:45;1.50;;;1.40;;
61038;SDS011;46919;45.816;3.104;2023-04-09T12:45:15;2.28;;;1.55;;
61038;SDS011;46919;45.816;3.104;2023-04-09T12:47:42;1.60;;;1.50;;
61038;SDS011;46919;45.816;3.104;2023-04-09T12:50:08;3.45;;;1.40;;
61038;SDS011;46919;45.816;3.104;2023-04-09T12:52:34;1.75;;;1.65;;
61038;SDS011;46919;45.816;3.104;2023-04-09T12:55:00;1.90;;;1.10;;
61038;SDS011;46919;45.816;3.104;2023-04-09T12:57:26;1.30;;;1.02;;
61038;SDS011;46919;45.816;3.104;2023-04-09T12:59:52;1.83;;;1.33;;
61038;SDS011;46919;45.816;3.104;2023-04-09T13:02:18;1.90;;;1.45;;
61038;SDS011;46919;45.816;3.104;2023-04-09T13:04:45;1.83;;;1.10;;
61038;SDS011;46919;45.816;3.104;2023-04-09T13:07:11;1.20;;;1.10;;
61038;SDS011;46919;45.816;3.104;2023-04-09T13:09:39;1.80;;;1.20;;
61038;SDS011;46919;45.816;3.104;2023-04-09T13:12:09;1.83;;;1.20;;
61038;SDS011;46919;45.816;3.104;2023-04-09T13:14:35;1.40;;;1.10;;
61038;SDS011;46919;45.816;3.104;2023-04-09T13:17:02;1.40;;;1.30;;
61038;SDS011;46919;45.816;3.104;2023-04-09T13:19:28;1.92;;;1.27;;
61038;SDS011;46919;45.816;3.104;2023-04-09T13:21:53;1.38;;;1.27;;
61038;SDS011;46919;45.816;3.104;2023-04-09T13:24:18;2.30;;;1.20;;
61038;SDS011;46919;45.816;3.104;2023-04-09T13:26:44;2.03;;;1.30;;
61038;SDS011;46919;45.816;3.104;2023-04-09T13:29:09;1.30;;;1.10;;
61038;SDS011;46919;45.816;3.104;2023-04-09T13:31:35;1.50;;;1.40;;
61038;SDS011;46919;45.816;3.104;2023-04-09T13:34:01;1.30;;;1.20;;
61038;SDS011;46919;45.816;3.104;2023-04-09T13:36:30;1.25;;;1.15;;
61038;SDS011;46919;45.816;3.104;2023-04-09T13:38:56;1.30;;;1.20;;
61038;SDS011;46919;45.816;3.104;2023-04-09T13:41:28;1.33;;;1.20;;
61038;SDS011;46919;45.816;3.104;2023-04-09T13:43:57;2.97;;;1.17;;
61038;SDS011;46919;45.816;3.104;2023-04-09T13:46:24;2.70;;;1.25;;
61038;SDS011;46919;45.816;3.104;2023-04-09T13:48:49;2.30;;;1.10;;
61038;SDS011;46919;45.816;3.104;2023-04-09T13:51:15;1.92;;;1.23;;
61038;SDS011;46919;45.816;3.104;2023-04-09T13:53:40;1.45;;;1.10;;
61038;SDS011;46919;45.816;3.104;2023-04-09T13:56:05;1.60;;;1.50;;
61038;SDS011;46919;45.816;3.104;2023-04-09T13:58:31;1.88;;;1.50;;
61038;SDS011;46919;45.816;3.104;2023-04-09T14:00:56;1.85;;;1.50;;
61038;SDS011;46919;45.816;3.104;2023-04-09T14:03:22;1.30;;;1.20;;
61038;SDS011;46919;45.816;3.104;2023-04-09T14:05:47;1.73;;;1.10;;
61038;SDS011;46919;45.816;3.104;2023-04-09T14:08:14;1.95;;;1.30;;
61038;SDS011;46919;45.816;3.104;2023-04-09T14:10:40;1.85;;;1.10;;
61038;SDS011;46919;45.816;3.104;2023-04-09T14:13:05;1.30;;;1.20;;
61038;SDS011;46919;45.816;3.104;2023-04-09T14:15:34;1.48;;;1.30;;
61038;SDS011;46919;45.816;3.104;2023-04-09T14:18:00;1.40;;;1.30;;
61038;SDS011;46919;45.816;3.104;2023-04-09T14:20:26;1.80;;;1.25;;
61038;SDS011;46919;45.816;3.104;2023-04-09T14:22:52;1.50;;;1.40;;
61038;SDS011;46919;45.816;3.104;2023-04-09T14:25:17;1.45;;;1.35;;
61038;SDS011;46919;45.816;3.104;2023-04-09T14:27:42;2.28;;;1.30;;
61038;SDS011;46919;45.816;3.104;2023-04-09T14:30:08;1.08;;;1.05;;
61038;SDS011;46919;45.816;3.104;2023-04-09T14:32:34;1.55;;;1.02;;
61038;SDS011;46919;45.816;3.104;2023-04-09T14:34:59;2.22;;;1.33;;
61038;SDS011;46919;45.816;3.104;2023-04-09T14:37:25;1.58;;;1.23;;
61038;SDS011;46919;45.816;3.104;2023-04-09T14:39:51;1.33;;;1.23;;
61038;SDS011;46919;45.816;3.104;2023-04-09T14:42:17;1.13;;;1.00;;
61038;SDS011;46919;45.816;3.104;2023-04-09T14:44:43;1.75;;;1.13;;
61038;SDS011;46919;45.816;3.104;2023-04-09T14:47:08;1.52;;;1.20;;
61038;SDS011;46919;45.816;3.104;2023-04-09T14:49:33;1.45;;;1.20;;
61038;SDS011;46919;45.816;3.104;2023-04-09T14:51:59;1.42;;;1.00;;
61038;SDS011;46919;45.816;3.104;2023-04-09T14:54:24;1.15;;;0.80;;
61038;SDS011;46919;45.816;3.104;2023-04-09T14:56:50;2.25;;;0.90;;
61038;SDS011;46919;45.816;3.104;2023-04-09T14:59:15;1.77;;;1.13;;
61038;SDS011;46919;45.816;3.104;2023-04-09T15:01:40;1.35;;;0.90;;
61038;SDS011;46919;45.816;3.104;2023-04-09T15:04:06;0.95;;;0.75;;
61038;SDS011;46919;45.816;3.104;2023-04-09T15:06:32;1.52;;;0.93;;
61038;SDS011;46919;45.816;3.104;2023-04-09T15:08:57;1.08;;;0.80;;
61038;SDS011;46919;45.816;3.104;2023-04-09T15:11:22;0.80;;;0.80;;
61038;SDS011;46919;45.816;3.104;2023-04-09T15:13:48;1.15;;;0.90;;